sensor_id;sensor_type;location;lat;lon;timestamp;P1;durP1;ratioP1;P2;durP2;ratioP2
7647;SDS011;3866;48.020;11.720;2022-07-10T00:00:06;5.30;;;2.30;;
7647;SDS011;3866;48.020;11.720;2022-07-10T00:02:36;2.20;;;2.00;;
7647;SDS011;3866;48.020;11.720;2022-07-10T00:05:05;2.97;;;2.00;;
7647;SDS011;3866;48.020;11.720;2022-07-10T00:07:32;3.90;;;2.27;;
7647;SDS011;3866;48.020;11.720;2022-07-10T00:10:03;3.03;;;2.10;;
7647;SDS011;3866;48.020;11.720;2022-07-10T00:12:35;4.47;;;2.10;;
7647;SDS011;3866;48.020;11.720;2022-07-10T00:15:03;4.70;;;2.43;;
7647;SDS011;3866;48.020;11.720;2022-07-10T00:17:32;5.17;;;2.60;;
7647;SDS011;3866;48.020;11.720;2022-07-10T00:20:02;2.47;;;1.90;;
7647;SDS011;3866;48.020;11.720;2022-07-10T00:22:30;2.80;;;2.47;;
7647;SDS011;3866;48.020;11.720;2022-07-10T00:24:58;2.57;;;2.23;;
7647;SDS011;3866;48.020;11.720;2022-07-10T00:27:26;1.97;;;1.77;;
7647;SDS011;3866;48.020;11.720;2022-07-10T00:29:55;3.63;;;2.50;;
7647;SDS011;3866;48.020;11.720;2022-07-10T00:32:24;2.67;;;2.20;;
7647;SDS011;3866;48.020;11.720;2022-07-10T00:34:51;4.40;;;2.40;;
7647;SDS011;3866;48.020;11.720;2022-07-10T00:37:18;2.47;;;2.27;;
7647;SDS011;3866;48.020;11.720;2022-07-10T00:39:46;6.17;;;2.40;;
7647;SDS011;3866;48.020;11.720;2022-07-10T00:42:13;2.73;;;2.47;;
7647;SDS011;3866;48.020;11.720;2022-07-10T00:44:43;2.77;;;2.50;;
7647;SDS011;3866;48.020;11.720;2022-07-10T00:47:10;2.47;;;2.27;;
7647;SDS011;3866;48.020;11.720;2022-07-10T00:49:39;3.03;;;2.30;;
7647;SDS011;3866;48.020;11.720;2022-07-10T00:52:07;3.37;;;2.30;;
7647;SDS011;3866;48.020;11.720;2022-07-10T00:54:36;3.67;;;2.50;;
7647;SDS011;3866;48.020;11.720;2022-07-10T00:57:06;2.60;;;2.40;;
7647;SDS011;3866;48.020;11.720;2022-07-10T00:59:33;3.87;;;3.17;;
7647;SDS011;3866;48.020;11.720;2022-07-10T01:02:04;4.33;;;3.33;;
7647;SDS011;3866;48.020;11.720;2022-07-10T01:04:32;4.10;;;3.20;;
7647;SDS011;3866;48.020;11.720;2022-07-10T01:07:01;4.33;;;3.93;;
7647;SDS011;3866;48.020;11.720;2022-07-10T01:09:30;4.83;;;4.10;;
7647;SDS011;3866;48.020;11.720;2022-07-10T01:11:58;4.90;;;4.50;;
7647;SDS011;3866;48.020;11.720;2022-07-10T01:14:27;5.47;;;4.23;;
7647;SDS011;3866;48.020;11.720;2022-07-10T01:16:55;5.03;;;4.63;;
7647;SDS011;3866;48.020;11.720;2022-07-10T01:19:25;5.40;;;4.90;;
7647;SDS011;3866;48.020;11.720;2022-07-10T01:21:54;6.97;;;5.67;;
7647;SDS011;3866;48.020;11.720;2022-07-10T01:24:22;6.43;;;4.70;;
7647;SDS011;3866;48.020;11.720;2022-07-10T01:26:50;6.53;;;4.80;;
7647;SDS011;3866;48.020;11.720;2022-07-10T01:29:20;5.87;;;5.40;;
7647;SDS011;3866;48.020;11.720;2022-07-10T01:31:49;5.60;;;5.10;;
7647;SDS011;3866;48.020;11.720;2022-07-10T01:34:19;6.10;;;5.60;;
7647;SDS011;3866;48.020;11.720;2022-07-10T01:36:47;6.20;;;5.70;;
7647;SDS011;3866;48.020;11.720;2022-07-10T01:39:17;7.10;;;6.40;;
7647;SDS011;3866;48.020;11.720;2022-07-10T01:41:45;6.43;;;5.67;;
7647;SDS011;3866;48.020;11.720;2022-07-10T01:44:13;6.27;;;5.33;;
7647;SDS011;3866;48.020;11.720;2022-07-10T01:46:45;6.63;;;5.90;;
7647;SDS011;3866;48.020;11.720;2022-07-10T01:49:14;6.80;;;5.73;;
7647;SDS011;3866;48.020;11.720;2022-07-10T01:51:43;6.37;;;5.73;;
7647;SDS011;3866;48.020;11.720;2022-07-10T01:54:10;6.67;;;6.07;;
7647;SDS011;3866;48.020;11.720;2022-07-10T01:56:41;6.10;;;5.50;;
7647;SDS011;3866;48.020;11.720;2022-07-10T01:59:11;5.80;;;5.30;;
7647;SDS011;3866;48.020;11.720;2022-07-10T02:01:38;6.43;;;5.83;;
7647;SDS011;3866;48.020;11.720;2022-07-10T02:04:06;7.03;;;6.03;;
7647;SDS011;3866;48.020;11.720;2022-07-10T02:06:51;6.37;;;5.77;;
7647;SDS011;3866;48.020;11.720;2022-07-10T02:09:18;5.53;;;5.13;;
7647;SDS011;3866;48.020;11.720;2022-07-10T02:11:47;6.53;;;5.93;;
7647;SDS011;3866;48.020;11.720;2022-07-10T02:14:15;6.13;;;5.53;;
7647;SDS011;3866;48.020;11.720;2022-07-10T02:16:43;6.93;;;6.27;;
7647;SDS011;3866;48.020;11.720;2022-07-10T02:19:10;6.33;;;5.73;;
7647;SDS011;3866;48.020;11.720;2022-07-10T02:21:37;6.57;;;5.93;;
7647;SDS011;3866;48.020;11.720;2022-07-10T02:24:05;5.70;;;5.20;;
7647;SDS011;3866;48.020;11.720;2022-07-10T02:26:35;7.97;;;6.90;;
7647;SDS011;3866;48.020;11.720;2022-07-10T02:29:04;7.03;;;6.43;;
7647;SDS011;3866;48.020;11.720;2022-07-10T02:31:32;6.97;;;6.33;;
7647;SDS011;3866;48.020;11.720;2022-07-10T02:34:03;7.13;;;6.47;;
7647;SDS011;3866;48.020;11.720;2022-07-10T02:36:31;11.27;;;6.80;;
7647;SDS011;3866;48.020;11.720;2022-07-10T02:38:59;8.70;;;6.90;;
7647;SDS011;3866;48.020;11.720;2022-07-10T02:41:26;7.87;;;7.10;;
7647;SDS011;3866;48.020;11.720;2022-07-10T02:43:54;7.83;;;7.10;;
7647;SDS011;3866;48.020;11.720;2022-07-10T02:46:25;8.37;;;7.53;;
7647;SDS011;3866;48.020;11.720;2022-07-10T02:48:52;7.63;;;6.87;;
7647;SDS011;3866;48.020;11.720;2022-07-10T02:51:19;7.83;;;6.97;;
7647;SDS011;3866;48.020;11.720;2022-07-10T02:53:47;8.27;;;7.47;;
7647;SDS011;3866;48.020;11.720;2022-07-10T02:56:14;8.97;;;8.17;;
7647;SDS011;3866;48.020;11.720;2022-07-10T02:58:41;8.67;;;7.97;;
7647;SDS011;3866;48.020;11.720;2022-07-10T03:01:08;11.00;;;8.93;;
7647;SDS011;3866;48.020;11.720;2022-07-10T03:03:39;9.53;;;8.63;;
7647;SDS011;3866;48.020;11.720;2022-07-10T03:06:06;9.73;;;8.83;;
7647;SDS011;3866;48.020;11.720;2022-07-10T03:08:37;10.50;;;9.40;;
7647;SDS011;3866;48.020;11.720;2022-07-10T03:11:04;11.17;;;9.40;;
7647;SDS011;3866;48.020;11.720;2022-07-10T03:13:33;11.30;;;9.83;;
7647;SDS011;3866;48.020;11.720;2022-07-10T03:16:00;11.03;;;10.03;;
7647;SDS011;3866;48.020;11.720;2022-07-10T03:18:28;13.30;;;9.30;;
7647;SDS011;3866;48.020;11.720;2022-07-10T03:20:57;11.23;;;9.63;;
7647;SDS011;3866;48.020;11.720;2022-07-10T03:23:25;11.73;;;9.63;;
7647;SDS011;3866;48.020;11.720;2022-07-10T03:25:53;10.20;;;9.20;;
7647;SDS011;3866;48.020;11.720;2022-07-10T03:28:21;11.30;;;10.20;;
7647;SDS011;3866;48.020;11.720;2022-07-10T03:30:48;9.93;;;8.80;;
7647;SDS011;3866;48.020;11.720;2022-07-10T03:33:15;10.37;;;9.07;;
7647;SDS011;3866;48.020;11.720;2022-07-10T03:35:46;11.40;;;9.33;;
7647;SDS011;3866;48.020;11.720;2022-07-10T03:38:15;11.60;;;8.47;;
7647;SDS011;3866;48.020;11.720;2022-07-10T03:40:42;9.70;;;8.60;;
7647;SDS011;3866;48.020;11.720;2022-07-10T03:43:12;9.43;;;8.53;;
7647;SDS011;3866;48.020;11.720;2022-07-10T03:45:39;9.93;;;8.83;;
7647;SDS011;3866;48.020;11.720;2022-07-10T03:48:06;8.57;;;7.77;;
7647;SDS011;3866;48.020;11.720;2022-07-10T03:50:33;9.00;;;8.20;;
7647;SDS011;3866;48.020;11.720;2022-07-10T03:53:00;10.80;;;8.57;;
7647;SDS011;3866;48.020;11.720;2022-07-10T03:55:29;9.47;;;8.50;;
7647;SDS011;3866;48.020;11.720;2022-07-10T03:57:57;9.40;;;8.40;;
7647;SDS011;3866;48.020;11.720;2022-07-10T04:00:28;9.33;;;8.43;;
7647;SDS011;3866;48.020;11.720;2022-07-10T04:02:57;8.77;;;7.90;;
7647;SDS011;3866;48.020;11.720;2022-07-10T04:05:26;8.67;;;7.90;;
7647;SDS011;3866;48.020;11.720;2022-07-10T04:07:53;8.47;;;7.67;;
7647;SDS011;3866;48.020;11.720;2022-07-10T04:10:22;9.60;;;8.60;;
7647;SDS011;3866;48.020;11.720;2022-07-10T04:12:51;9.10;;;8.20;;
7647;SDS011;3866;48.020;11.720;2022-07-10T04:15:18;8.93;;;8.03;;
7647;SDS011;3866;48.020;11.720;2022-07-10T04:17:46;8.00;;;7.30;;
7647;SDS011;3866;48.020;11.720;2022-07-10T04:20:13;9.47;;;7.50;;
7647;SDS011;3866;48.020;11.720;2022-07-10T04:22:41;7.50;;;6.90;;
7647;SDS011;3866;48.020;11.720;2022-07-10T04:25:09;9.97;;;7.67;;
7647;SDS011;3866;48.020;11.720;2022-07-10T04:27:39;7.83;;;7.13;;
7647;SDS011;3866;48.020;11.720;2022-07-10T04:30:08;7.57;;;6.87;;
7647;SDS011;3866;48.020;11.720;2022-07-10T04:32:35;7.90;;;7.20;;
7647;SDS011;3866;48.020;11.720;2022-07-10T04:35:03;7.67;;;6.97;;
7647;SDS011;3866;48.020;11.720;2022-07-10T04:37:30;7.30;;;6.60;;
7647;SDS011;3866;48.020;11.720;2022-07-10T04:39:59;7.77;;;7.07;;
7647;SDS011;3866;48.020;11.720;2022-07-10T04:42:27;7.13;;;6.57;;
7647;SDS011;3866;48.020;11.720;2022-07-10T04:44:55;7.63;;;6.70;;
7647;SDS011;3866;48.020;11.720;2022-07-10T04:47:24;8.10;;;7.30;;
7647;SDS011;3866;48.020;11.720;2022-07-10T04:49:51;7.40;;;6.80;;
7647;SDS011;3866;48.020;11.720;2022-07-10T04:52:19;7.27;;;6.57;;
7647;SDS011;3866;48.020;11.720;2022-07-10T04:54:49;6.83;;;6.23;;
7647;SDS011;3866;48.020;11.720;2022-07-10T04:57:15;7.90;;;7.20;;
7647;SDS011;3866;48.020;11.720;2022-07-10T04:59:42;8.07;;;7.30;;
7647;SDS011;3866;48.020;11.720;2022-07-10T05:02:09;7.70;;;7.00;;
7647;SDS011;3866;48.020;11.720;2022-07-10T05:04:38;7.53;;;6.83;;
7647;SDS011;3866;48.020;11.720;2022-07-10T05:07:06;8.30;;;7.17;;
7647;SDS011;3866;48.020;11.720;2022-07-10T05:09:34;7.80;;;7.00;;
7647;SDS011;3866;48.020;11.720;2022-07-10T05:12:01;7.30;;;6.60;;
7647;SDS011;3866;48.020;11.720;2022-07-10T05:14:28;9.67;;;6.77;;
7647;SDS011;3866;48.020;11.720;2022-07-10T05:16:59;6.80;;;6.20;;
7647;SDS011;3866;48.020;11.720;2022-07-10T05:19:27;6.93;;;6.33;;
7647;SDS011;3866;48.020;11.720;2022-07-10T05:21:55;7.00;;;6.40;;
7647;SDS011;3866;48.020;11.720;2022-07-10T05:24:23;7.73;;;6.53;;
7647;SDS011;3866;48.020;11.720;2022-07-10T05:26:50;7.83;;;7.03;;
7647;SDS011;3866;48.020;11.720;2022-07-10T05:29:19;7.53;;;6.93;;
7647;SDS011;3866;48.020;11.720;2022-07-10T05:31:46;9.87;;;8.97;;
7647;SDS011;3866;48.020;11.720;2022-07-10T05:34:12;8.07;;;6.80;;
7647;SDS011;3866;48.020;11.720;2022-07-10T05:36:39;9.70;;;7.70;;
7647;SDS011;3866;48.020;11.720;2022-07-10T05:39:08;8.13;;;7.33;;
7647;SDS011;3866;48.020;11.720;2022-07-10T05:41:36;8.13;;;7.20;;
7647;SDS011;3866;48.020;11.720;2022-07-10T05:44:04;8.43;;;7.63;;
7647;SDS011;3866;48.020;11.720;2022-07-10T05:46:32;9.60;;;7.73;;
7647;SDS011;3866;48.020;11.720;2022-07-10T05:48:58;7.70;;;7.00;;
7647;SDS011;3866;48.020;11.720;2022-07-10T05:51:26;8.43;;;7.63;;
7647;SDS011;3866;48.020;11.720;2022-07-10T05:53:54;9.37;;;7.63;;
7647;SDS011;3866;48.020;11.720;2022-07-10T05:56:23;7.33;;;6.63;;
7647;SDS011;3866;48.020;11.720;2022-07-10T05:58:50;7.57;;;6.87;;
7647;SDS011;3866;48.020;11.720;2022-07-10T06:01:21;7.80;;;6.90;;
7647;SDS011;3866;48.020;11.720;2022-07-10T06:03:49;8.20;;;7.47;;
7647;SDS011;3866;48.020;11.720;2022-07-10T06:06:17;7.53;;;6.80;;
7647;SDS011;3866;48.020;11.720;2022-07-10T06:08:44;7.93;;;7.23;;
7647;SDS011;3866;48.020;11.720;2022-07-10T06:11:11;7.20;;;6.60;;
7647;SDS011;3866;48.020;11.720;2022-07-10T06:13:40;6.70;;;6.10;;
7647;SDS011;3866;48.020;11.720;2022-07-10T06:16:07;6.70;;;6.20;;
7647;SDS011;3866;48.020;11.720;2022-07-10T06:18:34;7.87;;;6.13;;
7647;SDS011;3866;48.020;11.720;2022-07-10T06:21:02;7.90;;;7.03;;
7647;SDS011;3866;48.020;11.720;2022-07-10T06:23:29;8.70;;;7.43;;
7647;SDS011;3866;48.020;11.720;2022-07-10T06:25:59;7.83;;;7.13;;
7647;SDS011;3866;48.020;11.720;2022-07-10T06:28:26;8.67;;;7.87;;
7647;SDS011;3866;48.020;11.720;2022-07-10T06:30:55;8.27;;;7.50;;
7647;SDS011;3866;48.020;11.720;2022-07-10T06:33:23;7.90;;;7.27;;
7647;SDS011;3866;48.020;11.720;2022-07-10T06:35:49;7.57;;;6.97;;
7647;SDS011;3866;48.020;11.720;2022-07-10T06:38:17;8.13;;;7.43;;
7647;SDS011;3866;48.020;11.720;2022-07-10T06:40:45;8.57;;;7.57;;
7647;SDS011;3866;48.020;11.720;2022-07-10T06:43:13;7.43;;;6.80;;
7647;SDS011;3866;48.020;11.720;2022-07-10T06:45:40;8.00;;;7.27;;
7647;SDS011;3866;48.020;11.720;2022-07-10T06:48:09;8.63;;;7.77;;
7647;SDS011;3866;48.020;11.720;2022-07-10T06:50:35;7.00;;;6.30;;
7647;SDS011;3866;48.020;11.720;2022-07-10T06:53:04;6.60;;;6.03;;
7647;SDS011;3866;48.020;11.720;2022-07-10T06:55:33;6.40;;;5.90;;
7647;SDS011;3866;48.020;11.720;2022-07-10T06:58:02;7.57;;;6.60;;
7647;SDS011;3866;48.020;11.720;2022-07-10T07:00:31;6.53;;;5.83;;
7647;SDS011;3866;48.020;11.720;2022-07-10T07:03:01;7.50;;;6.13;;
7647;SDS011;3866;48.020;11.720;2022-07-10T07:05:30;6.40;;;5.90;;
7647;SDS011;3866;48.020;11.720;2022-07-10T07:07:59;6.70;;;6.10;;
7647;SDS011;3866;48.020;11.720;2022-07-10T07:10:26;7.43;;;6.73;;
7647;SDS011;3866;48.020;11.720;2022-07-10T07:12:54;6.80;;;6.20;;
7647;SDS011;3866;48.020;11.720;2022-07-10T07:15:22;7.03;;;6.33;;
7647;SDS011;3866;48.020;11.720;2022-07-10T07:17:50;7.03;;;6.33;;
7647;SDS011;3866;48.020;11.720;2022-07-10T07:20:34;6.23;;;5.73;;
7647;SDS011;3866;48.020;11.720;2022-07-10T07:23:19;6.37;;;5.87;;
7647;SDS011;3866;48.020;11.720;2022-07-10T07:25:48;7.93;;;5.70;;
7647;SDS011;3866;48.020;11.720;2022-07-10T07:28:15;6.53;;;5.70;;
7647;SDS011;3866;48.020;11.720;2022-07-10T07:30:43;6.57;;;5.90;;
7647;SDS011;3866;48.020;11.720;2022-07-10T07:33:11;8.33;;;6.00;;
7647;SDS011;3866;48.020;11.720;2022-07-10T07:35:41;8.90;;;6.87;;
7647;SDS011;3866;48.020;11.720;2022-07-10T07:38:10;6.03;;;5.53;;
7647;SDS011;3866;48.020;11.720;2022-07-10T07:40:36;7.73;;;6.93;;
7647;SDS011;3866;48.020;11.720;2022-07-10T07:43:05;7.87;;;6.90;;
7647;SDS011;3866;48.020;11.720;2022-07-10T07:45:32;7.27;;;6.57;;
7647;SDS011;3866;48.020;11.720;2022-07-10T07:48:00;6.20;;;5.60;;
7647;SDS011;3866;48.020;11.720;2022-07-10T07:50:36;6.73;;;6.07;;
7647;SDS011;3866;48.020;11.720;2022-07-10T07:53:07;6.10;;;5.60;;
7647;SDS011;3866;48.020;11.720;2022-07-10T07:55:35;6.83;;;6.13;;
7647;SDS011;3866;48.020;11.720;2022-07-10T07:58:03;5.50;;;5.00;;
7647;SDS011;3866;48.020;11.720;2022-07-10T08:00:31;5.63;;;4.97;;
7647;SDS011;3866;48.020;11.720;2022-07-10T08:02:58;5.93;;;5.30;;
7647;SDS011;3866;48.020;11.720;2022-07-10T08:05:28;6.00;;;5.40;;
7647;SDS011;3866;48.020;11.720;2022-07-10T08:07:57;5.93;;;5.43;;
7647;SDS011;3866;48.020;11.720;2022-07-10T08:10:30;6.20;;;5.60;;
7647;SDS011;3866;48.020;11.720;2022-07-10T08:12:59;6.33;;;5.73;;
7647;SDS011;3866;48.020;11.720;2022-07-10T08:15:27;7.33;;;6.30;;
7647;SDS011;3866;48.020;11.720;2022-07-10T08:17:54;7.37;;;5.90;;
7647;SDS011;3866;48.020;11.720;2022-07-10T08:20:23;5.87;;;5.37;;
7647;SDS011;3866;48.020;11.720;2022-07-10T08:22:53;5.13;;;4.70;;
7647;SDS011;3866;48.020;11.720;2022-07-10T08:25:22;5.50;;;5.00;;
7647;SDS011;3866;48.020;11.720;2022-07-10T08:27:51;6.70;;;4.87;;
7647;SDS011;3866;48.020;11.720;2022-07-10T08:30:19;4.73;;;4.40;;
7647;SDS011;3866;48.020;11.720;2022-07-10T08:32:47;4.60;;;4.20;;
7647;SDS011;3866;48.020;11.720;2022-07-10T08:35:15;6.20;;;3.53;;
7647;SDS011;3866;48.020;11.720;2022-07-10T08:37:44;3.47;;;3.10;;
7647;SDS011;3866;48.020;11.720;2022-07-10T08:40:13;3.70;;;3.40;;
7647;SDS011;3866;48.020;11.720;2022-07-10T08:42:45;4.33;;;4.03;;
7647;SDS011;3866;48.020;11.720;2022-07-10T08:45:15;3.83;;;3.40;;
7647;SDS011;3866;48.020;11.720;2022-07-10T08:47:43;3.63;;;3.33;;
7647;SDS011;3866;48.020;11.720;2022-07-10T08:50:15;6.27;;;3.50;;
7647;SDS011;3866;48.020;11.720;2022-07-10T08:52:48;3.47;;;2.47;;
7647;SDS011;3866;48.020;11.720;2022-07-10T08:55:23;2.57;;;2.37;;
7647;SDS011;3866;48.020;11.720;2022-07-10T08:57:53;2.50;;;2.30;;
7647;SDS011;3866;48.020;11.720;2022-07-10T09:00:24;5.00;;;2.10;;
7647;SDS011;3866;48.020;11.720;2022-07-10T09:02:53;3.33;;;1.90;;
7647;SDS011;3866;48.020;11.720;2022-07-10T09:05:30;3.77;;;2.40;;
7647;SDS011;3866;48.020;11.720;2022-07-10T09:08:01;3.97;;;2.80;;
7647;SDS011;3866;48.020;11.720;2022-07-10T09:10:30;2.87;;;2.67;;
7647;SDS011;3866;48.020;11.720;2022-07-10T09:12:59;2.90;;;2.40;;
7647;SDS011;3866;48.020;11.720;2022-07-10T09:15:31;4.53;;;1.87;;
7647;SDS011;3866;48.020;11.720;2022-07-10T09:18:01;3.93;;;2.20;;
7647;SDS011;3866;48.020;11.720;2022-07-10T09:20:36;2.47;;;2.13;;
7647;SDS011;3866;48.020;11.720;2022-07-10T09:23:14;3.73;;;2.63;;
7647;SDS011;3866;48.020;11.720;2022-07-10T09:25:44;5.67;;;3.77;;
7647;SDS011;3866;48.020;11.720;2022-07-10T09:28:15;3.13;;;2.67;;
7647;SDS011;3866;48.020;11.720;2022-07-10T09:30:46;2.40;;;2.23;;
7647;SDS011;3866;48.020;11.720;2022-07-10T09:33:18;3.20;;;2.03;;
7647;SDS011;3866;48.020;11.720;2022-07-10T09:35:57;2.63;;;2.23;;
7647;SDS011;3866;48.020;11.720;2022-07-10T09:41:23;4.93;;;2.07;;
7647;SDS011;3866;48.020;11.720;2022-07-10T09:43:53;2.23;;;2.00;;
7647;SDS011;3866;48.020;11.720;2022-07-10T09:46:25;4.57;;;1.97;;
7647;SDS011;3866;48.020;11.720;2022-07-10T09:49:01;4.03;;;2.60;;
7647;SDS011;3866;48.020;11.720;2022-07-10T09:51:34;8.07;;;7.27;;
7647;SDS011;3866;48.020;11.720;2022-07-10T09:54:05;10.10;;;9.13;;
7647;SDS011;3866;48.020;11.720;2022-07-10T09:56:39;2.57;;;2.37;;
7647;SDS011;3866;48.020;11.720;2022-07-10T09:59:11;4.63;;;3.20;;
7647;SDS011;3866;48.020;11.720;2022-07-10T10:01:45;2.63;;;1.60;;
7647;SDS011;3866;48.020;11.720;2022-07-10T10:04:15;2.63;;;1.70;;
7647;SDS011;3866;48.020;11.720;2022-07-10T10:06:43;2.40;;;1.50;;
7647;SDS011;3866;48.020;11.720;2022-07-10T10:09:23;2.20;;;1.90;;
7647;SDS011;3866;48.020;11.720;2022-07-10T10:11:56;2.57;;;1.80;;
7647;SDS011;3866;48.020;11.720;2022-07-10T10:14:35;2.87;;;1.70;;
7647;SDS011;3866;48.020;11.720;2022-07-10T10:17:06;1.90;;;1.33;;
7647;SDS011;3866;48.020;11.720;2022-07-10T10:19:35;1.77;;;1.67;;
7647;SDS011;3866;48.020;11.720;2022-07-10T10:22:25;2.43;;;1.47;;
7647;SDS011;3866;48.020;11.720;2022-07-10T10:24:55;1.70;;;1.43;;
7647;SDS011;3866;48.020;11.720;2022-07-10T10:27:24;1.97;;;1.27;;
7647;SDS011;3866;48.020;11.720;2022-07-10T10:29:53;2.27;;;1.50;;
7647;SDS011;3866;48.020;11.720;2022-07-10T10:32:23;1.53;;;1.40;;
7647;SDS011;3866;48.020;11.720;2022-07-10T10:34:51;4.13;;;1.80;;
7647;SDS011;3866;48.020;11.720;2022-07-10T10:37:35;2.07;;;1.47;;
7647;SDS011;3866;48.020;11.720;2022-07-10T10:40:05;1.87;;;1.30;;
7647;SDS011;3866;48.020;11.720;2022-07-10T10:42:36;3.17;;;1.40;;
7647;SDS011;3866;48.020;11.720;2022-07-10T10:48:04;1.30;;;1.20;;
7647;SDS011;3866;48.020;11.720;2022-07-10T10:50:38;1.73;;;1.27;;
7647;SDS011;3866;48.020;11.720;2022-07-10T10:53:17;1.83;;;1.40;;
7647;SDS011;3866;48.020;11.720;2022-07-10T10:58:58;1.97;;;1.00;;
7647;SDS011;3866;48.020;11.720;2022-07-10T11:01:27;1.30;;;1.20;;
7647;SDS011;3866;48.020;11.720;2022-07-10T11:06:47;4.43;;;1.40;;
7647;SDS011;3866;48.020;11.720;2022-07-10T11:09:23;2.70;;;0.90;;
7647;SDS011;3866;48.020;11.720;2022-07-10T11:11:58;2.23;;;1.47;;
7647;SDS011;3866;48.020;11.720;2022-07-10T11:14:32;1.50;;;1.40;;
7647;SDS011;3866;48.020;11.720;2022-07-10T11:17:02;2.63;;;1.60;;
7647;SDS011;3866;48.020;11.720;2022-07-10T11:19:31;2.23;;;1.27;;
7647;SDS011;3866;48.020;11.720;2022-07-10T11:25:20;1.63;;;1.50;;
7647;SDS011;3866;48.020;11.720;2022-07-10T11:28:04;3.10;;;1.10;;
7647;SDS011;3866;48.020;11.720;2022-07-10T11:30:44;3.07;;;1.37;;
7647;SDS011;3866;48.020;11.720;2022-07-10T11:33:13;2.83;;;1.37;;
7647;SDS011;3866;48.020;11.720;2022-07-10T11:35:42;1.30;;;1.13;;
7647;SDS011;3866;48.020;11.720;2022-07-10T11:38:12;2.50;;;1.10;;
7647;SDS011;3866;48.020;11.720;2022-07-10T11:40:40;1.27;;;0.97;;
7647;SDS011;3866;48.020;11.720;2022-07-10T11:43:07;1.47;;;1.30;;
7647;SDS011;3866;48.020;11.720;2022-07-10T11:45:41;1.90;;;1.30;;
7647;SDS011;3866;48.020;11.720;2022-07-10T11:48:16;2.83;;;1.33;;
7647;SDS011;3866;48.020;11.720;2022-07-10T11:50:47;2.70;;;1.40;;
7647;SDS011;3866;48.020;11.720;2022-07-10T11:53:21;2.27;;;1.30;;
7647;SDS011;3866;48.020;11.720;2022-07-10T11:55:48;2.30;;;1.47;;
7647;SDS011;3866;48.020;11.720;2022-07-10T11:58:17;4.53;;;1.60;;
7647;SDS011;3866;48.020;11.720;2022-07-10T12:00:56;2.43;;;1.37;;
7647;SDS011;3866;48.020;11.720;2022-07-10T12:03:25;3.27;;;1.30;;
7647;SDS011;3866;48.020;11.720;2022-07-10T12:05:53;2.63;;;1.20;;
7647;SDS011;3866;48.020;11.720;2022-07-10T12:08:20;2.27;;;0.83;;
7647;SDS011;3866;48.020;11.720;2022-07-10T12:10:47;1.10;;;1.00;;
7647;SDS011;3866;48.020;11.720;2022-07-10T12:13:14;2.40;;;1.10;;
7647;SDS011;3866;48.020;11.720;2022-07-10T12:15:41;2.07;;;1.10;;
7647;SDS011;3866;48.020;11.720;2022-07-10T12:18:14;2.13;;;1.00;;
7647;SDS011;3866;48.020;11.720;2022-07-10T12:20:43;1.20;;;1.10;;
7647;SDS011;3866;48.020;11.720;2022-07-10T12:23:16;2.47;;;1.20;;
7647;SDS011;3866;48.020;11.720;2022-07-10T12:25:45;5.13;;;1.30;;
7647;SDS011;3866;48.020;11.720;2022-07-10T12:28:14;2.33;;;1.20;;
7647;SDS011;3866;48.020;11.720;2022-07-10T12:30:43;1.40;;;0.90;;
7647;SDS011;3866;48.020;11.720;2022-07-10T12:33:12;2.30;;;1.40;;
7647;SDS011;3866;48.020;11.720;2022-07-10T12:35:47;3.67;;;1.33;;
7647;SDS011;3866;48.020;11.720;2022-07-10T12:38:18;2.90;;;1.27;;
7647;SDS011;3866;48.020;11.720;2022-07-10T12:40:48;2.00;;;1.10;;
7647;SDS011;3866;48.020;11.720;2022-07-10T12:43:25;3.10;;;1.10;;
7647;SDS011;3866;48.020;11.720;2022-07-10T12:46:10;1.30;;;0.97;;
7647;SDS011;3866;48.020;11.720;2022-07-10T12:48:41;1.70;;;1.20;;
7647;SDS011;3866;48.020;11.720;2022-07-10T12:51:22;1.10;;;0.93;;
7647;SDS011;3866;48.020;11.720;2022-07-10T12:53:53;2.10;;;1.07;;
7647;SDS011;3866;48.020;11.720;2022-07-10T12:56:31;1.30;;;0.97;;
7647;SDS011;3866;48.020;11.720;2022-07-10T12:59:02;2.30;;;0.87;;
7647;SDS011;3866;48.020;11.720;2022-07-10T13:01:41;2.57;;;1.10;;
7647;SDS011;3866;48.020;11.720;2022-07-10T13:04:10;1.20;;;0.83;;
7647;SDS011;3866;48.020;11.720;2022-07-10T13:06:38;1.37;;;1.00;;
7647;SDS011;3866;48.020;11.720;2022-07-10T13:09:22;1.93;;;1.00;;
7647;SDS011;3866;48.020;11.720;2022-07-10T13:11:52;2.43;;;1.10;;
7647;SDS011;3866;48.020;11.720;2022-07-10T13:14:21;2.63;;;1.00;;
7647;SDS011;3866;48.020;11.720;2022-07-10T13:16:49;1.63;;;0.90;;
7647;SDS011;3866;48.020;11.720;2022-07-10T13:19:17;1.07;;;0.70;;
7647;SDS011;3866;48.020;11.720;2022-07-10T13:21:46;0.80;;;0.80;;
7647;SDS011;3866;48.020;11.720;2022-07-10T13:24:14;1.77;;;1.00;;
7647;SDS011;3866;48.020;11.720;2022-07-10T13:26:43;1.90;;;0.93;;
7647;SDS011;3866;48.020;11.720;2022-07-10T13:29:10;2.00;;;0.70;;
7647;SDS011;3866;48.020;11.720;2022-07-10T13:31:38;5.10;;;0.90;;
7647;SDS011;3866;48.020;11.720;2022-07-10T13:34:06;1.37;;;0.90;;
7647;SDS011;3866;48.020;11.720;2022-07-10T13:36:34;1.33;;;0.90;;
7647;SDS011;3866;48.020;11.720;2022-07-10T13:39:03;4.03;;;1.00;;
7647;SDS011;3866;48.020;11.720;2022-07-10T13:41:31;0.97;;;0.90;;
7647;SDS011;3866;48.020;11.720;2022-07-10T13:44:01;2.07;;;0.80;;
7647;SDS011;3866;48.020;11.720;2022-07-10T13:46:29;2.90;;;1.03;;
7647;SDS011;3866;48.020;11.720;2022-07-10T13:48:57;2.77;;;0.80;;
7647;SDS011;3866;48.020;11.720;2022-07-10T13:51:26;4.47;;;1.50;;
7647;SDS011;3866;48.020;11.720;2022-07-10T13:53:54;1.00;;;0.90;;
7647;SDS011;3866;48.020;11.720;2022-07-10T13:56:24;2.37;;;1.17;;
7647;SDS011;3866;48.020;11.720;2022-07-10T13:58:55;1.80;;;1.00;;
7647;SDS011;3866;48.020;11.720;2022-07-10T14:01:25;2.13;;;1.03;;
7647;SDS011;3866;48.020;11.720;2022-07-10T14:03:53;2.30;;;1.00;;
7647;SDS011;3866;48.020;11.720;2022-07-10T14:06:21;2.37;;;1.03;;
7647;SDS011;3866;48.020;11.720;2022-07-10T14:08:50;1.97;;;0.90;;
7647;SDS011;3866;48.020;11.720;2022-07-10T14:11:19;2.77;;;0.90;;
7647;SDS011;3866;48.020;11.720;2022-07-10T14:13:47;3.67;;;0.93;;
7647;SDS011;3866;48.020;11.720;2022-07-10T14:16:15;1.80;;;0.80;;
7647;SDS011;3866;48.020;11.720;2022-07-10T14:18:45;2.83;;;0.70;;
7647;SDS011;3866;48.020;11.720;2022-07-10T14:21:12;1.80;;;0.90;;
7647;SDS011;3866;48.020;11.720;2022-07-10T14:23:40;1.17;;;1.07;;
7647;SDS011;3866;48.020;11.720;2022-07-10T14:26:10;2.40;;;0.87;;
7647;SDS011;3866;48.020;11.720;2022-07-10T14:28:39;2.93;;;0.87;;
7647;SDS011;3866;48.020;11.720;2022-07-10T14:31:07;2.83;;;1.10;;
7647;SDS011;3866;48.020;11.720;2022-07-10T14:33:37;0.63;;;0.63;;
7647;SDS011;3866;48.020;11.720;2022-07-10T14:36:09;1.67;;;0.90;;
7647;SDS011;3866;48.020;11.720;2022-07-10T14:38:36;1.03;;;0.80;;
7647;SDS011;3866;48.020;11.720;2022-07-10T14:41:06;0.80;;;0.70;;
7647;SDS011;3866;48.020;11.720;2022-07-10T14:43:37;2.77;;;0.80;;
7647;SDS011;3866;48.020;11.720;2022-07-10T14:46:05;1.93;;;0.80;;
7647;SDS011;3866;48.020;11.720;2022-07-10T14:48:33;1.07;;;0.80;;
7647;SDS011;3866;48.020;11.720;2022-07-10T14:51:03;2.23;;;0.80;;
7647;SDS011;3866;48.020;11.720;2022-07-10T14:53:33;2.67;;;0.90;;
7647;SDS011;3866;48.020;11.720;2022-07-10T14:56:02;1.50;;;0.80;;
7647;SDS011;3866;48.020;11.720;2022-07-10T14:58:31;1.17;;;0.87;;
7647;SDS011;3866;48.020;11.720;2022-07-10T15:00:59;1.90;;;0.80;;
7647;SDS011;3866;48.020;11.720;2022-07-10T15:03:29;2.10;;;0.80;;
7647;SDS011;3866;48.020;11.720;2022-07-10T15:05:57;2.00;;;0.80;;
7647;SDS011;3866;48.020;11.720;2022-07-10T15:08:25;2.90;;;0.70;;
7647;SDS011;3866;48.020;11.720;2022-07-10T15:10:55;2.13;;;0.90;;
7647;SDS011;3866;48.020;11.720;2022-07-10T15:13:25;1.00;;;0.80;;
7647;SDS011;3866;48.020;11.720;2022-07-10T15:15:53;2.13;;;0.80;;
7647;SDS011;3866;48.020;11.720;2022-07-10T15:18:22;2.87;;;0.70;;
7647;SDS011;3866;48.020;11.720;2022-07-10T15:20:50;3.63;;;0.87;;
7647;SDS011;3866;48.020;11.720;2022-07-10T15:23:18;1.43;;;0.60;;
7647;SDS011;3866;48.020;11.720;2022-07-10T15:25:46;1.63;;;0.70;;
7647;SDS011;3866;48.020;11.720;2022-07-10T15:28:19;1.57;;;0.97;;